Time;durP1;ratioP1;P1;durP2;ratioP2;P2;SDS_P1;SDS_P2;PMS_P1;PMS_P2;Temp;Humidity;BMP_temperature;BMP_pressure;BME280_temperature;BME280_humidity;BME280_pressure;Samples;Min_cycle;Max_cycle;Signal;HPM_P1;HPM_P2
2023/09/07 00:01:46;;;;;;;3.60;3.00;;;;;;;;;;5072610;28;20495;-54
2023/09/07 00:04:15;;;;;;;3.10;2.83;;;;;;;;;;5071974;28;20183;-54
2023/09/07 00:06:43;;;;;;;4.47;2.87;;;;;;;;;;5072284;28;20251;-55
2023/09/07 00:09:11;;;;;;;3.50;3.20;;;;;;;;;;5072130;28;20634;-54
2023/09/07 00:11:37;;;;;;;5.03;3.03;;;;;;;;;;5072688;28;20226;-55
2023/09/07 00:14:03;;;;;;;;;;;;;;;;;;5072531;28;20240;-55
2023/09/07 00:16:30;;;;;;;;;;;;;;;;;;5072669;28;20050;-55
2023/09/07 00:18:56;;;;;;;;;;;;;;;;;;5072687;28;20145;-55
2023/09/07 00:21:22;;;;;;;4.00;3.10;;;;;;;;;;5072491;28;20287;-55
2023/09/07 00:23:48;;;;;;;3.40;3.10;;;;;;;;;;5072247;28;20246;-55
2023/09/07 00:26:15;;;;;;;3.50;3.20;;;;;;;;;;5069926;28;20235;-54
2023/09/07 00:28:41;;;;;;;5.57;3.30;;;;;;;;;;5070480;28;20697;-53
2023/09/07 00:31:07;;;;;;;3.50;3.13;;;;;;;;;;5071944;28;20203;-53
2023/09/07 00:33:33;;;;;;;4.10;3.10;;;;;;;;;;5072137;28;20211;-54
2023/09/07 00:36:01;;;;;;;3.60;3.30;;;;;;;;;;5071697;28;20191;-56
2023/09/07 00:38:27;;;;;;;3.83;3.20;;;;;;;;;;5071708;28;20243;-55
2023/09/07 00:40:53;;;;;;;3.70;3.40;;;;;;;;;;5071865;28;20220;-55
2023/09/07 00:43:21;;;;;;;3.60;3.30;;;;;;;;;;5071529;28;20219;-55
2023/09/07 00:45:47;;;;;;;4.77;3.50;;;;;;;;;;5071624;28;20324;-55
2023/09/07 00:48:13;;;;;;;5.17;3.53;;;;;;;;;;5071575;28;20206;-55
2023/09/07 00:50:40;;;;;;;3.50;3.20;;;;;;;;;;5071622;28;20191;-55
2023/09/07 00:53:06;;;;;;;4.07;3.67;;;;;;;;;;5071567;28;20200;-55
2023/09/07 00:55:34;;;;;;;8.30;3.80;;;;;;;;;;5071527;28;20247;-55
2023/09/07 00:58:00;;;;;;;3.97;3.57;;;;;;;;;;5071359;28;20207;-55
2023/09/07 01:00:28;;;;;;;5.63;3.83;;;;;;;;;;5071629;28;20202;-55
2023/09/07 01:02:55;;;;;;;3.87;3.40;;;;;;;;;;5071463;28;20199;-55
2023/09/07 01:05:22;;;;;;;4.33;3.40;;;;;;;;;;5071388;28;20244;-55
2023/09/07 01:07:49;;;;;;;3.83;3.43;;;;;;;;;;5071348;28;20202;-55
2023/09/07 01:10:15;;;;;;;4.43;3.73;;;;;;;;;;5071200;28;20199;-55
2023/09/07 01:12:41;;;;;;;3.93;3.50;;;;;;;;;;5071398;28;20199;-55
2023/09/07 01:15:08;;;;;;;7.10;3.43;;;;;;;;;;5071181;28;20415;-55
2023/09/07 01:17:35;;;;;;;3.87;3.50;;;;;;;;;;5071258;28;20199;-55
2023/09/07 01:20:09;;;;;;;4.67;3.60;;;;;;;;;;5071126;28;20278;-55
2023/09/07 01:22:37;;;;;;;6.97;3.40;;;;;;;;;;5075496;28;20223;-55
2023/09/07 01:25:05;;;;;;;4.23;3.83;;;;;;;;;;5075288;28;20623;-55
2023/09/07 01:27:31;;;;;;;3.93;3.57;;;;;;;;;;5075633;28;20404;-56
2023/09/07 01:29:57;;;;;;;5.10;4.10;;;;;;;;;;5075285;28;20194;-55
2023/09/07 01:32:24;;;;;;;4.47;3.33;;;;;;;;;;5075412;28;20260;-56
2023/09/07 01:34:50;;;;;;;5.33;3.80;;;;;;;;;;5075179;28;20203;-56
2023/09/07 01:37:16;;;;;;;4.10;3.70;;;;;;;;;;5074823;28;20199;-56
2023/09/07 01:39:44;;;;;;;3.63;3.33;;;;;;;;;;5075245;28;20205;-55
2023/09/07 01:42:10;;;;;;;5.10;3.90;;;;;;;;;;5074998;28;20226;-56
2023/09/07 01:44:36;;;;;;;3.73;3.43;;;;;;;;;;5075108;28;20191;-56
2023/09/07 01:47:02;;;;;;;4.23;3.33;;;;;;;;;;5074695;28;20227;-55
2023/09/07 01:49:28;;;;;;;4.00;3.60;;;;;;;;;;5074907;28;20669;-55
2023/09/07 01:51:54;;;;;;;5.43;4.00;;;;;;;;;;5075104;28;20225;-55
2023/09/07 01:54:21;;;;;;;5.20;4.07;;;;;;;;;;5074843;28;20229;-55
2023/09/07 01:56:49;;;;;;;5.13;3.93;;;;;;;;;;5074740;28;20290;-56
2023/09/07 01:59:15;;;;;;;4.10;3.77;;;;;;;;;;5074888;28;20203;-56
2023/09/07 02:01:41;;;;;;;4.37;3.83;;;;;;;;;;5075108;28;20253;-56
2023/09/07 02:04:07;;;;;;;4.50;4.10;;;;;;;;;;5075059;28;20183;-56
2023/09/07 02:06:33;;;;;;;4.03;3.70;;;;;;;;;;5074555;28;20237;-56
2023/09/07 02:08:59;;;;;;;4.20;3.83;;;;;;;;;;5074514;28;20207;-56
2023/09/07 02:11:25;;;;;;;3.93;3.53;;;;;;;;;;5074701;28;20221;-56
2023/09/07 02:13:52;;;;;;;4.90;3.80;;;;;;;;;;5074467;28;20252;-56
2023/09/07 02:16:18;;;;;;;5.23;3.60;;;;;;;;;;5074324;28;20228;-56
2023/09/07 02:18:46;;;;;;;4.90;3.60;;;;;;;;;;5074458;28;20616;-56
2023/09/07 02:21:12;;;;;;;5.03;3.87;;;;;;;;;;5074260;28;20278;-56
2023/09/07 02:23:38;;;;;;;6.63;3.80;;;;;;;;;;5074355;28;20735;-56
2023/09/07 02:26:05;;;;;;;3.90;3.60;;;;;;;;;;5074018;28;20318;-56
2023/09/07 02:28:31;;;;;;;4.40;3.73;;;;;;;;;;5074190;28;20734;-56
2023/09/07 02:31:04;;;;;;;3.93;3.63;;;;;;;;;;5074128;28;20230;-56
2023/09/07 02:33:30;;;;;;;4.70;4.20;;;;;;;;;;5074134;28;20203;-56
2023/09/07 02:35:56;;;;;;;4.53;3.70;;;;;;;;;;5074218;28;20205;-56
2023/09/07 02:38:22;;;;;;;4.37;3.97;;;;;;;;;;5073951;28;20241;-57
2023/09/07 02:40:48;;;;;;;4.60;4.00;;;;;;;;;;5073996;28;20932;-56
2023/09/07 02:43:16;;;;;;;3.80;3.50;;;;;;;;;;5073925;28;20248;-57
2023/09/07 02:45:42;;;;;;;7.37;4.03;;;;;;;;;;5073801;28;20235;-57
2023/09/07 02:48:09;;;;;;;4.60;4.03;;;;;;;;;;5073974;28;20202;-57
2023/09/07 02:50:35;;;;;;;4.77;3.90;;;;;;;;;;5073792;28;20575;-57
2023/09/07 02:53:04;;;;;;;4.03;3.63;;;;;;;;;;5073861;28;20213;-56
2023/09/07 02:55:30;;;;;;;6.00;4.53;;;;;;;;;;5073780;28;20264;-57
2023/09/07 02:57:56;;;;;;;5.30;4.10;;;;;;;;;;5073885;28;20248;-56
2023/09/07 03:00:22;;;;;;;4.33;3.77;;;;;;;;;;5073659;28;20225;-56
2023/09/07 03:02:48;;;;;;;5.60;3.97;;;;;;;;;;5073603;28;20194;-56
2023/09/07 03:05:16;;;;;;;4.30;3.90;;;;;;;;;;5073405;28;20712;-56
2023/09/07 03:07:42;;;;;;;5.07;4.47;;;;;;;;;;5073437;28;20687;-57
2023/09/07 03:10:09;;;;;;;4.60;3.60;;;;;;;;;;5073410;28;20694;-57
2023/09/07 03:12:35;;;;;;;4.30;3.90;;;;;;;;;;5073601;28;20304;-56
2023/09/07 03:15:03;;;;;;;4.93;4.33;;;;;;;;;;5073178;28;20506;-56
2023/09/07 03:17:29;;;;;;;4.50;4.10;;;;;;;;;;5073281;28;20668;-56
2023/09/07 03:19:55;;;;;;;4.63;4.23;;;;;;;;;;5073303;28;20668;-56
2023/09/07 03:22:23;;;;;;;6.20;4.67;;;;;;;;;;5073058;28;20207;-57
2023/09/07 03:24:49;;;;;;;5.57;4.30;;;;;;;;;;5072963;28;20657;-57
2023/09/07 03:27:15;;;;;;;7.67;4.20;;;;;;;;;;5072909;28;20549;-56
2023/09/07 03:29:42;;;;;;;4.43;4.03;;;;;;;;;;5073031;28;20217;-56
2023/09/07 03:32:08;;;;;;;4.67;4.27;;;;;;;;;;5072935;28;20677;-57
2023/09/07 03:34:34;;;;;;;5.93;4.30;;;;;;;;;;5072806;28;20664;-57
2023/09/07 03:37:00;;;;;;;5.23;4.73;;;;;;;;;;5072937;28;20251;-57
2023/09/07 03:39:28;;;;;;;7.10;4.50;;;;;;;;;;5072824;28;20227;-57
2023/09/07 03:41:54;;;;;;;5.27;4.70;;;;;;;;;;5072897;28;20783;-56
2023/09/07 03:44:20;;;;;;;4.77;4.30;;;;;;;;;;5072103;28;20223;-56
2023/09/07 03:46:46;;;;;;;4.63;4.23;;;;;;;;;;5072557;28;20292;-56
2023/09/07 03:49:13;;;;;;;6.13;4.57;;;;;;;;;;5072589;28;20200;-57
2023/09/07 03:51:39;;;;;;;4.83;4.43;;;;;;;;;;5072761;28;20279;-57
2023/09/07 03:54:05;;;;;;;4.57;4.17;;;;;;;;;;5072429;28;20278;-57
2023/09/07 03:56:32;;;;;;;5.37;4.87;;;;;;;;;;5072487;28;20191;-57
2023/09/07 03:58:58;;;;;;;7.83;4.70;;;;;;;;;;5072456;28;20240;-56
2023/09/07 04:01:25;;;;;;;4.90;4.50;;;;;;;;;;5072376;28;20243;-56
2023/09/07 04:03:51;;;;;;;5.00;4.50;;;;;;;;;;5072461;28;20613;-57
2023/09/07 04:06:17;;;;;;;6.17;4.63;;;;;;;;;;5072086;28;20232;-57
2023/09/07 04:08:43;;;;;;;5.27;4.80;;;;;;;;;;5072271;28;20194;-57
2023/09/07 04:11:09;;;;;;;5.20;4.70;;;;;;;;;;5072288;28;20197;-57
2023/09/07 04:13:36;;;;;;;5.00;4.50;;;;;;;;;;5072182;28;20667;-57
2023/09/07 04:16:02;;;;;;;4.83;4.43;;;;;;;;;;5071917;28;20195;-57
2023/09/07 04:18:29;;;;;;;4.87;4.43;;;;;;;;;;5072065;28;20207;-56
2023/09/07 04:21:05;;;;;;;5.63;5.17;;;;;;;;;;5072201;28;20201;-56
2023/09/07 04:23:31;;;;;;;6.33;4.67;;;;;;;;;;5072069;28;20563;-56
2023/09/07 04:26:03;;;;;;;5.67;4.80;;;;;;;;;;5071810;28;20569;-56
2023/09/07 04:28:29;;;;;;;5.63;5.13;;;;;;;;;;5071819;28;20291;-56
2023/09/07 04:30:57;;;;;;;5.57;4.70;;;;;;;;;;5072008;28;20253;-56
2023/09/07 04:33:23;;;;;;;7.57;4.87;;;;;;;;;;5071883;28;20196;-56
2023/09/07 04:35:49;;;;;;;5.40;4.90;;;;;;;;;;5071800;28;20279;-56
2023/09/07 04:38:15;;;;;;;5.33;4.83;;;;;;;;;;5071461;28;20740;-56
2023/09/07 04:40:41;;;;;;;5.97;5.10;;;;;;;;;;5071689;28;20233;-56
2023/09/07 04:43:07;;;;;;;7.37;4.60;;;;;;;;;;5071389;28;20256;-56
2023/09/07 04:45:33;;;;;;;5.30;4.80;;;;;;;;;;5071060;28;20219;-56
2023/09/07 04:48:00;;;;;;;6.60;5.10;;;;;;;;;;5070997;28;20254;-56
2023/09/07 04:50:26;;;;;;;5.37;4.87;;;;;;;;;;5071465;28;20231;-56
2023/09/07 04:52:53;;;;;;;5.30;4.80;;;;;;;;;;5071631;28;20230;-57
2023/09/07 04:55:19;;;;;;;5.73;5.13;;;;;;;;;;5070609;28;20221;-57
2023/09/07 04:57:45;;;;;;;4.93;4.53;;;;;;;;;;5071557;28;20244;-57
2023/09/07 05:00:12;;;;;;;5.53;5.03;;;;;;;;;;5071382;28;20200;-57
2023/09/07 05:02:41;;;;;;;5.40;4.97;;;;;;;;;;5071598;28;20200;-57
2023/09/07 05:05:09;;;;;;;5.67;5.17;;;;;;;;;;5071133;28;20209;-58
2023/09/07 05:07:35;;;;;;;5.50;4.63;;;;;;;;;;5071413;28;20200;-57
2023/09/07 05:10:01;;;;;;;5.73;5.23;;;;;;;;;;5071066;28;20231;-57
2023/09/07 05:12:27;;;;;;;6.87;5.20;;;;;;;;;;5071081;28;20207;-57
2023/09/07 05:14:53;;;;;;;6.10;5.50;;;;;;;;;;5071156;28;20250;-56
2023/09/07 05:17:19;;;;;;;6.20;5.60;;;;;;;;;;5071074;28;20647;-57
2023/09/07 05:19:45;;;;;;;5.80;5.30;;;;;;;;;;5071050;28;20201;-57
2023/09/07 05:22:13;;;;;;;6.00;5.40;;;;;;;;;;5071385;28;20200;-57
2023/09/07 05:24:40;;;;;;;6.40;5.47;;;;;;;;;;5071377;28;20286;-57
2023/09/07 05:27:06;;;;;;;5.83;5.23;;;;;;;;;;5070841;28;20215;-58
2023/09/07 05:29:32;;;;;;;6.60;5.50;;;;;;;;;;5070940;28;20247;-56
2023/09/07 05:31:58;;;;;;;5.80;5.30;;;;;;;;;;5070973;28;20249;-56
2023/09/07 05:34:24;;;;;;;5.43;5.03;;;;;;;;;;5071007;28;20205;-57
2023/09/07 05:36:50;;;;;;;6.70;5.67;;;;;;;;;;5071077;28;20195;-57
2023/09/07 05:39:18;;;;;;;5.97;5.40;;;;;;;;;;5070551;28;20247;-57
2023/09/07 05:41:44;;;;;;;5.30;4.80;;;;;;;;;;5070945;28;20646;-58
2023/09/07 05:44:10;;;;;;;6.57;5.53;;;;;;;;;;5071067;28;20220;-57
2023/09/07 05:46:36;;;;;;;5.60;5.10;;;;;;;;;;5070782;28;20622;-57
2023/09/07 05:49:02;;;;;;;6.40;5.80;;;;;;;;;;5070822;28;20201;-56
2023/09/07 05:51:28;;;;;;;5.87;5.10;;;;;;;;;;5071016;28;20221;-56
2023/09/07 05:53:55;;;;;;;6.47;5.03;;;;;;;;;;5071123;28;20235;-56
2023/09/07 05:56:22;;;;;;;6.37;5.50;;;;;;;;;;5070973;28;20218;-56
2023/09/07 05:58:48;;;;;;;5.90;5.30;;;;;;;;;;5070740;28;20708;-56
2023/09/07 06:01:14;;;;;;;5.97;5.37;;;;;;;;;;5070612;28;20205;-56
2023/09/07 06:03:41;;;;;;;5.97;5.17;;;;;;;;;;5070983;28;20207;-57
2023/09/07 06:06:07;;;;;;;5.77;5.23;;;;;;;;;;5070669;28;20753;-57
2023/09/07 06:08:33;;;;;;;5.50;5.00;;;;;;;;;;5074376;28;20205;-57
2023/09/07 06:10:59;;;;;;;5.87;5.40;;;;;;;;;;5074372;28;20208;-57
2023/09/07 06:13:27;;;;;;;6.07;5.47;;;;;;;;;;5074472;28;20287;-57
2023/09/07 06:15:53;;;;;;;6.47;5.10;;;;;;;;;;5074411;28;20191;-57
2023/09/07 06:18:19;;;;;;;6.13;5.10;;;;;;;;;;5074389;28;20203;-57
2023/09/07 06:20:45;;;;;;;7.20;5.30;;;;;;;;;;5074575;28;20195;-57
2023/09/07 06:23:11;;;;;;;5.57;5.07;;;;;;;;;;5074116;28;20626;-57
2023/09/07 06:25:37;;;;;;;5.23;4.77;;;;;;;;;;5074150;28;20585;-57
2023/09/07 06:28:03;;;;;;;5.27;4.83;;;;;;;;;;5074021;28;20198;-57
2023/09/07 06:30:30;;;;;;;6.33;4.87;;;;;;;;;;5073981;28;20230;-57
2023/09/07 06:32:57;;;;;;;5.37;4.70;;;;;;;;;;5074293;28;20282;-57
2023/09/07 06:35:23;;;;;;;5.70;5.20;;;;;;;;;;5074038;28;20202;-57
2023/09/07 06:37:49;;;;;;;5.40;4.67;;;;;;;;;;5073908;28;20277;-57
2023/09/07 06:40:17;;;;;;;5.70;5.10;;;;;;;;;;5073823;28;20233;-57
2023/09/07 06:42:43;;;;;;;5.70;5.20;;;;;;;;;;5073761;28;20614;-57
2023/09/07 06:45:09;;;;;;;5.70;5.00;;;;;;;;;;5073883;28;20556;-57
2023/09/07 06:47:37;;;;;;;5.27;4.77;;;;;;;;;;5073943;28;20199;-57
2023/09/07 06:50:04;;;;;;;5.53;5.00;;;;;;;;;;5073802;28;20329;-57
2023/09/07 06:52:30;;;;;;;5.93;5.00;;;;;;;;;;5073561;28;20215;-57
2023/09/07 06:54:56;;;;;;;5.60;5.00;;;;;;;;;;5073670;28;20662;-57
2023/09/07 06:57:22;;;;;;;6.37;5.07;;;;;;;;;;5073678;28;20222;-57
2023/09/07 06:59:48;;;;;;;5.37;4.60;;;;;;;;;;5073554;28;20231;-56
2023/09/07 07:02:14;;;;;;;5.27;4.40;;;;;;;;;;5073666;28;20195;-56
2023/09/07 07:04:43;;;;;;;6.33;4.60;;;;;;;;;;5073618;28;20202;-56
2023/09/07 07:07:09;;;;;;;5.70;5.20;;;;;;;;;;5073481;28;20278;-56
2023/09/07 07:09:36;;;;;;;5.27;4.40;;;;;;;;;;5073340;28;20196;-56
2023/09/07 07:12:02;;;;;;;7.70;5.00;;;;;;;;;;5073550;28;20745;-56
2023/09/07 07:14:28;;;;;;;8.13;4.67;;;;;;;;;;5073023;28;20223;-55
2023/09/07 07:16:54;;;;;;;5.43;4.73;;;;;;;;;;5073332;28;20204;-56
2023/09/07 07:19:20;;;;;;;7.90;4.60;;;;;;;;;;5072221;28;20245;-56
2023/09/07 07:21:48;;;;;;;5.83;4.53;;;;;;;;;;5073163;28;20223;-56
2023/09/07 07:24:14;;;;;;;8.43;4.60;;;;;;;;;;5073040;28;20211;-56
2023/09/07 07:26:41;;;;;;;9.77;5.37;;;;;;;;;;5073200;28;20314;-56
2023/09/07 07:29:07;;;;;;;5.30;4.77;;;;;;;;;;5073030;28;20195;-56
2023/09/07 07:31:33;;;;;;;5.83;4.43;;;;;;;;;;5073039;28;20222;-57
2023/09/07 07:33:59;;;;;;;7.50;5.10;;;;;;;;;;5072968;28;20223;-56
2023/09/07 07:36:25;;;;;;;6.17;4.33;;;;;;;;;;5072965;28;20617;-56
2023/09/07 07:38:52;;;;;;;5.23;4.77;;;;;;;;;;5072969;28;20245;-56
2023/09/07 07:41:18;;;;;;;8.00;4.83;;;;;;;;;;5072810;28;20201;-57
2023/09/07 07:43:44;;;;;;;4.80;3.97;;;;;;;;;;5072768;28;20226;-56
2023/09/07 07:46:10;;;;;;;4.83;4.43;;;;;;;;;;5072628;28;20217;-56
2023/09/07 07:48:36;;;;;;;5.70;4.10;;;;;;;;;;5072525;28;20193;-58
2023/09/07 07:51:03;;;;;;;7.17;4.87;;;;;;;;;;5072554;28;20652;-56
2023/09/07 07:53:29;;;;;;;10.53;5.10;;;;;;;;;;5072442;28;20651;-56
2023/09/07 07:55:57;;;;;;;6.67;4.70;;;;;;;;;;5072659;28;20197;-56
2023/09/07 07:58:23;;;;;;;9.77;4.80;;;;;;;;;;5072364;28;20217;-55
2023/09/07 08:00:49;;;;;;;8.40;4.90;;;;;;;;;;5072390;28;20643;-56
2023/09/07 08:03:15;;;;;;;8.13;4.40;;;;;;;;;;5072343;28;20280;-55
2023/09/07 08:05:42;;;;;;;8.23;4.40;;;;;;;;;;5072386;28;20234;-58
2023/09/07 08:08:08;;;;;;;6.77;4.20;;;;;;;;;;5072432;28;20206;-54
2023/09/07 08:10:36;;;;;;;6.23;4.40;;;;;;;;;;5072222;28;20651;-59
2023/09/07 08:13:04;;;;;;;4.20;3.80;;;;;;;;;;5072176;28;20203;-60
2023/09/07 08:15:31;;;;;;;5.50;4.40;;;;;;;;;;5071888;28;20203;-55
2023/09/07 08:17:57;;;;;;;4.77;4.37;;;;;;;;;;5072055;28;20203;-55
2023/09/07 08:20:25;;;;;;;5.70;4.03;;;;;;;;;;5071991;28;20191;-56
2023/09/07 08:22:52;;;;;;;5.00;4.50;;;;;;;;;;5062461;28;20203;-57
2023/09/07 08:25:18;;;;;;;4.43;4.03;;;;;;;;;;5069748;28;20225;-55
2023/09/07 08:27:45;;;;;;;4.37;3.73;;;;;;;;;;5070134;28;20195;-56
2023/09/07 08:30:15;;;;;;;4.93;4.27;;;;;;;;;;5071578;28;20196;-56
2023/09/07 08:32:41;;;;;;;4.60;3.77;;;;;;;;;;5072088;28;20199;-56
2023/09/07 08:35:09;;;;;;;4.37;3.97;;;;;;;;;;5066945;28;20187;-56
2023/09/07 08:37:35;;;;;;;4.57;4.07;;;;;;;;;;5067475;28;20252;-56
2023/09/07 08:40:03;;;;;;;5.10;4.20;;;;;;;;;;5071534;28;20570;-56
2023/09/07 08:42:29;;;;;;;8.17;4.30;;;;;;;;;;5071150;28;20571;-55
2023/09/07 08:44:58;;;;;;;5.67;4.33;;;;;;;;;;5068111;28;20196;-56
2023/09/07 08:47:26;;;;;;;5.90;4.47;;;;;;;;;;5071639;28;20207;-55
2023/09/07 08:49:52;;;;;;;5.80;3.63;;;;;;;;;;5071840;28;20192;-57
2023/09/07 08:52:19;;;;;;;7.10;4.30;;;;;;;;;;5071686;28;20205;-55
2023/09/07 08:54:46;;;;;;;6.60;4.10;;;;;;;;;;5071544;28;20199;-55
2023/09/07 08:57:12;;;;;;;5.47;4.40;;;;;;;;;;5071414;28;20203;-56
2023/09/07 08:59:38;;;;;;;5.60;4.63;;;;;;;;;;5071416;28;20201;-56
2023/09/07 09:02:07;;;;;;;7.20;4.00;;;;;;;;;;5071357;28;20226;-52
2023/09/07 09:04:35;;;;;;;4.20;3.80;;;;;;;;;;5071281;28;20188;-56
2023/09/07 09:07:03;;;;;;;5.53;3.77;;;;;;;;;;5071251;28;20588;-56
2023/09/07 09:09:30;;;;;;;5.47;4.03;;;;;;;;;;5071228;28;20205;-56
2023/09/07 09:12:06;;;;;;;4.83;3.73;;;;;;;;;;5071874;28;20198;-55
2023/09/07 09:14:32;;;;;;;4.13;3.63;;;;;;;;;;5071238;28;20204;-56
2023/09/07 09:16:58;;;;;;;5.07;3.57;;;;;;;;;;5071158;28;20599;-56
2023/09/07 09:19:31;;;;;;;4.73;3.47;;;;;;;;;;5071465;28;20298;-56
2023/09/07 09:21:58;;;;;;;4.73;3.90;;;;;;;;;;5071366;28;20218;-56
2023/09/07 09:24:24;;;;;;;6.83;3.77;;;;;;;;;;5071309;28;20207;-56
2023/09/07 09:26:51;;;;;;;4.40;3.70;;;;;;;;;;5071364;28;20231;-55
2023/09/07 09:29:17;;;;;;;4.73;3.47;;;;;;;;;;5071067;28;20203;-54
2023/09/07 09:31:44;;;;;;;4.40;3.77;;;;;;;;;;5071215;28;20200;-54
2023/09/07 09:34:10;;;;;;;3.90;3.33;;;;;;;;;;5071350;28;20201;-54
2023/09/07 09:36:37;;;;;;;4.47;3.43;;;;;;;;;;5071107;28;20609;-55
2023/09/07 09:39:05;;;;;;;5.33;3.70;;;;;;;;;;5070902;28;20264;-55
2023/09/07 09:41:33;;;;;;;5.83;3.83;;;;;;;;;;5071667;28;20224;-55
2023/09/07 09:44:00;;;;;;;4.87;3.47;;;;;;;;;;5074827;28;20305;-55
2023/09/07 09:46:26;;;;;;;4.73;3.60;;;;;;;;;;5074837;28;20219;-54
2023/09/07 09:48:54;;;;;;;6.27;3.67;;;;;;;;;;5075238;28;20285;-54
2023/09/07 09:51:21;;;;;;;3.73;3.23;;;;;;;;;;5074888;28;20195;-54
2023/09/07 09:53:48;;;;;;;4.90;3.50;;;;;;;;;;5074981;28;20290;-54
2023/09/07 09:56:16;;;;;;;5.07;3.20;;;;;;;;;;5074629;28;20206;-53
2023/09/07 09:58:43;;;;;;;7.10;3.40;;;;;;;;;;5074834;28;20207;-54
2023/09/07 10:01:09;;;;;;;6.40;3.70;;;;;;;;;;5074866;28;20582;-53
2023/09/07 10:03:45;;;;;;;5.33;3.40;;;;;;;;;;5074567;28;20215;-54
2023/09/07 10:06:12;;;;;;;4.83;3.60;;;;;;;;;;5074662;28;20219;-53
2023/09/07 10:08:38;;;;;;;6.60;3.50;;;;;;;;;;5074568;28;20222;-55
2023/09/07 10:11:07;;;;;;;6.23;3.50;;;;;;;;;;5074546;28;20662;-55
2023/09/07 10:13:35;;;;;;;4.80;3.60;;;;;;;;;;5074357;28;20680;-55
2023/09/07 10:16:04;;;;;;;5.13;3.50;;;;;;;;;;5074359;28;20218;-55
2023/09/07 10:18:33;;;;;;;4.77;3.70;;;;;;;;;;5074074;28;20202;-56
2023/09/07 10:21:02;;;;;;;5.07;3.03;;;;;;;;;;5074404;28;20284;-55
2023/09/07 10:23:35;;;;;;;4.97;3.40;;;;;;;;;;5074134;28;20286;-55
2023/09/07 10:26:04;;;;;;;5.57;3.57;;;;;;;;;;5074306;28;20226;-55
2023/09/07 10:28:30;;;;;;;6.03;3.70;;;;;;;;;;5073995;28;20227;-55
2023/09/07 10:31:02;;;;;;;4.83;3.23;;;;;;;;;;5074351;28;20201;-55
2023/09/07 10:33:29;;;;;;;8.67;3.83;;;;;;;;;;5073904;28;20208;-55
2023/09/07 10:35:56;;;;;;;4.23;3.40;;;;;;;;;;5074415;28;20228;-55
2023/09/07 10:38:22;;;;;;;5.10;3.40;;;;;;;;;;5073777;28;20241;-54
2023/09/07 10:40:57;;;;;;;7.47;3.67;;;;;;;;;;5073859;28;20585;-54
2023/09/07 10:43:23;;;;;;;4.50;3.50;;;;;;;;;;5073874;28;20296;-55
2023/09/07 10:45:49;;;;;;;6.40;3.90;;;;;;;;;;5073862;28;20227;-54
2023/09/07 10:48:17;;;;;;;4.83;3.53;;;;;;;;;;5073630;28;20226;-55
2023/09/07 10:50:44;;;;;;;3.60;3.30;;;;;;;;;;5073697;28;20209;-55
2023/09/07 10:53:10;;;;;;;3.70;3.40;;;;;;;;;;5072456;28;20218;-55
2023/09/07 10:55:38;;;;;;;3.63;3.33;;;;;;;;;;5073764;28;20199;-54
2023/09/07 10:58:04;;;;;;;3.77;3.10;;;;;;;;;;5073571;28;20234;-54
2023/09/07 11:00:30;;;;;;;6.87;3.33;;;;;;;;;;5073374;28;20208;-54
2023/09/07 11:02:56;;;;;;;6.13;3.60;;;;;;;;;;5073504;28;20199;-54
2023/09/07 11:05:24;;;;;;;6.43;3.70;;;;;;;;;;5073471;28;20257;-54
2023/09/07 11:07:50;;;;;;;4.60;3.47;;;;;;;;;;5073366;28;20762;-55
2023/09/07 11:10:16;;;;;;;5.23;3.87;;;;;;;;;;5073262;28;20206;-54
2023/09/07 11:12:42;;;;;;;6.87;3.70;;;;;;;;;;5073297;28;20210;-55
2023/09/07 11:15:09;;;;;;;3.90;3.60;;;;;;;;;;5073387;28;20309;-55
2023/09/07 11:17:37;;;;;;;5.30;3.80;;;;;;;;;;5073154;28;20195;-53
2023/09/07 11:20:06;;;;;;;5.90;3.47;;;;;;;;;;5073237;28;20303;-54
2023/09/07 11:22:33;;;;;;;6.63;3.47;;;;;;;;;;5073143;28;20491;-55
2023/09/07 11:25:00;;;;;;;5.00;3.40;;;;;;;;;;5073093;28;20202;-54
2023/09/07 11:27:29;;;;;;;5.43;3.40;;;;;;;;;;5072904;28;20227;-54
2023/09/07 11:29:56;;;;;;;4.40;3.27;;;;;;;;;;5072940;28;20272;-55
2023/09/07 11:32:22;;;;;;;5.47;3.40;;;;;;;;;;5072935;28;20199;-55
2023/09/07 11:34:51;;;;;;;4.77;3.70;;;;;;;;;;5073213;28;20664;-55
2023/09/07 11:37:18;;;;;;;6.07;3.23;;;;;;;;;;5072671;28;20198;-56
2023/09/07 11:39:45;;;;;;;3.50;3.20;;;;;;;;;;5072776;28;20242;-54
2023/09/07 11:42:12;;;;;;;4.37;3.60;;;;;;;;;;5072705;28;20199;-55
2023/09/07 11:44:37;;;;;;;5.50;3.60;;;;;;;;;;5072574;28;20286;-54
2023/09/07 11:47:04;;;;;;;6.13;3.30;;;;;;;;;;5072627;28;20305;-55
2023/09/07 11:49:31;;;;;;;3.87;3.57;;;;;;;;;;5072308;28;20195;-55
2023/09/07 11:51:57;;;;;;;9.67;3.70;;;;;;;;;;5072569;28;20282;-54
2023/09/07 11:54:23;;;;;;;4.60;3.73;;;;;;;;;;5072548;28;20191;-54
2023/09/07 11:56:51;;;;;;;4.60;3.70;;;;;;;;;;5072752;28;20192;-53
2023/09/07 11:59:17;;;;;;;5.37;3.50;;;;;;;;;;5072278;28;20197;-53
2023/09/07 12:01:43;;;;;;;3.90;3.50;;;;;;;;;;5072231;28;20678;-53
2023/09/07 12:04:09;;;;;;;4.50;3.30;;;;;;;;;;5072021;28;20731;-54
2023/09/07 12:06:35;;;;;;;5.53;3.40;;;;;;;;;;5072027;28;20246;-54
2023/09/07 12:09:02;;;;;;;6.27;3.50;;;;;;;;;;5072223;28;20663;-54
2023/09/07 12:11:28;;;;;;;4.07;3.70;;;;;;;;;;5072155;28;20199;-54
2023/09/07 12:13:56;;;;;;;5.00;3.60;;;;;;;;;;5072178;28;20195;-55
2023/09/07 12:16:22;;;;;;;5.57;3.80;;;;;;;;;;5072134;28;20239;-54
2023/09/07 12:18:48;;;;;;;3.90;3.50;;;;;;;;;;5072103;28;20684;-54
2023/09/07 12:21:14;;;;;;;6.20;3.57;;;;;;;;;;5072047;28;20214;-54
2023/09/07 12:23:40;;;;;;;3.80;3.27;;;;;;;;;;5072218;28;20276;-54
2023/09/07 12:26:06;;;;;;;3.77;3.27;;;;;;;;;;5071918;28;20300;-54
2023/09/07 12:28:32;;;;;;;5.40;3.20;;;;;;;;;;5071657;28;20475;-54
2023/09/07 12:30:59;;;;;;;5.77;3.30;;;;;;;;;;5072137;28;20261;-53
2023/09/07 12:33:25;;;;;;;4.53;3.53;;;;;;;;;;5072088;28;20729;-54
2023/09/07 12:35:51;;;;;;;4.20;3.43;;;;;;;;;;5071774;28;20267;-54
2023/09/07 12:38:19;;;;;;;4.87;3.33;;;;;;;;;;5071597;28;20271;-54
2023/09/07 12:40:45;;;;;;;4.33;3.20;;;;;;;;;;5071613;28;20203;-54
2023/09/07 12:43:11;;;;;;;3.77;3.20;;;;;;;;;;5071484;28;20568;-55
2023/09/07 12:45:39;;;;;;;4.60;3.10;;;;;;;;;;5071621;28;20218;-54
2023/09/07 12:48:07;;;;;;;5.83;3.50;;;;;;;;;;5071579;28;20286;-54
2023/09/07 12:50:33;;;;;;;3.67;3.30;;;;;;;;;;5071323;28;20238;-54
2023/09/07 12:52:59;;;;;;;4.47;3.63;;;;;;;;;;5071542;28;20231;-54
2023/09/07 12:55:25;;;;;;;6.27;3.50;;;;;;;;;;5071644;28;20231;-54
2023/09/07 12:57:51;;;;;;;3.87;3.40;;;;;;;;;;5071443;28;20201;-54
2023/09/07 13:00:17;;;;;;;9.57;3.50;;;;;;;;;;5071401;28;20258;-54
2023/09/07 13:02:43;;;;;;;6.07;3.43;;;;;;;;;;5071381;28;20669;-54
2023/09/07 13:05:11;;;;;;;4.50;3.63;;;;;;;;;;5071738;28;20218;-54
2023/09/07 13:07:37;;;;;;;3.93;3.60;;;;;;;;;;5069759;28;20269;-54
2023/09/07 13:10:04;;;;;;;4.60;3.40;;;;;;;;;;5071423;28;20755;-54
2023/09/07 13:12:30;;;;;;;5.50;3.30;;;;;;;;;;5070968;28;20358;-54
2023/09/07 13:14:56;;;;;;;6.03;3.90;;;;;;;;;;5071150;28;20238;-54
2023/09/07 13:17:22;;;;;;;5.67;3.73;;;;;;;;;;5070212;28;20321;-54
2023/09/07 13:19:48;;;;;;;4.73;3.57;;;;;;;;;;5071271;28;20214;-54
2023/09/07 13:22:15;;;;;;;3.60;3.30;;;;;;;;;;5071173;28;20199;-55
2023/09/07 13:24:41;;;;;;;4.17;3.00;;;;;;;;;;5071270;28;20210;-55
2023/09/07 13:27:09;;;;;;;5.07;3.83;;;;;;;;;;5070824;28;20597;-54
2023/09/07 13:29:36;;;;;;;4.60;3.47;;;;;;;;;;5070774;28;20256;-55
2023/09/07 13:32:02;;;;;;;3.83;3.43;;;;;;;;;;5071084;28;20676;-55
2023/09/07 13:34:28;;;;;;;6.13;3.43;;;;;;;;;;5070856;28;20197;-54
2023/09/07 13:36:54;;;;;;;6.47;3.53;;;;;;;;;;5071043;28;20216;-54
2023/09/07 13:39:22;;;;;;;3.83;3.17;;;;;;;;;;5070607;28;20259;-55
2023/09/07 13:41:48;;;;;;;4.20;3.40;;;;;;;;;;5070890;28;20235;-54
2023/09/07 13:44:14;;;;;;;8.03;3.53;;;;;;;;;;5070337;28;20718;-54
2023/09/07 13:46:40;;;;;;;6.40;3.20;;;;;;;;;;5070462;28;20299;-55
2023/09/07 13:49:06;;;;;;;3.80;3.40;;;;;;;;;;5070611;28;20197;-55
2023/09/07 13:51:38;;;;;;;5.47;3.33;;;;;;;;;;5070637;28;20571;-55
2023/09/07 13:54:04;;;;;;;7.57;3.50;;;;;;;;;;5070796;28;20280;-54
2023/09/07 13:56:32;;;;;;;4.73;3.00;;;;;;;;;;5070628;28;20190;-55
2023/09/07 13:58:58;;;;;;;5.43;3.20;;;;;;;;;;5070773;28;20271;-55
2023/09/07 14:01:24;;;;;;;5.57;3.10;;;;;;;;;;5070769;28;20289;-55
2023/09/07 14:03:50;;;;;;;5.77;3.37;;;;;;;;;;5070425;28;20690;-55
2023/09/07 14:06:17;;;;;;;3.93;3.40;;;;;;;;;;5070450;28;20221;-55
2023/09/07 14:08:43;;;;;;;4.27;3.17;;;;;;;;;;5070752;28;20194;-54
2023/09/07 14:11:10;;;;;;;4.03;3.63;;;;;;;;;;5070948;28;20262;-55
2023/09/07 14:13:37;;;;;;;5.00;3.47;;;;;;;;;;5070370;28;20698;-55
2023/09/07 14:16:04;;;;;;;8.73;3.60;;;;;;;;;;5070539;28;20231;-55
2023/09/07 14:18:30;;;;;;;4.47;3.47;;;;;;;;;;5070456;28;20549;-55
2023/09/07 14:21:00;;;;;;;5.40;3.17;;;;;;;;;;5070874;28;20533;-54
2023/09/07 14:23:27;;;;;;;7.90;3.40;;;;;;;;;;5070546;28;20618;-55
2023/09/07 14:25:58;;;;;;;3.63;3.33;;;;;;;;;;5070601;28;20254;-55
2023/09/07 14:28:24;;;;;;;5.20;3.30;;;;;;;;;;5072610;28;20200;-55
2023/09/07 14:30:53;;;;;;;4.23;3.53;;;;;;;;;;5074354;28;20215;-55
2023/09/07 14:33:20;;;;;;;5.07;3.63;;;;;;;;;;5074170;28;20210;-56
2023/09/07 14:35:46;;;;;;;4.47;3.20;;;;;;;;;;5073618;28;20199;-53
2023/09/07 14:38:12;;;;;;;5.77;3.33;;;;;;;;;;5073744;28;20253;-53
2023/09/07 14:40:38;;;;;;;4.10;2.90;;;;;;;;;;5074147;28;20732;-53